Time;durP1;ratioP1;P1;durP2;ratioP2;P2;SDS_P1;SDS_P2;PMS_P1;PMS_P2;Temp;Humidity;BMP_temperature;BMP_pressure;BME280_temperature;BME280_humidity;BME280_pressure;Samples;Min_cycle;Max_cycle;Signal;HPM_P1;HPM_P2
2022/11/24 00:01:06;;;;;;;4.78;3.20;;;21.60;91.60;;;;;;6200319;28;89129;-67
2022/11/24 00:04:11;;;;;;;4.25;3.10;;;21.60;91.60;;;;;;6203020;28;87987;-66
2022/11/24 00:07:14;;;;;;;3.33;2.95;;;21.60;91.60;;;;;;6197811;28;88017;-67
2022/11/24 00:10:17;;;;;;;3.45;2.80;;;21.60;91.60;;;;;;6189359;28;89086;-68
2022/11/24 00:13:19;;;;;;;4.38;3.10;;;21.60;91.60;;;;;;6194278;28;88943;-68
2022/11/24 00:16:23;;;;;;;4.90;3.20;;;21.60;91.60;;;;;;6181741;28;89080;-67
2022/11/24 00:19:25;;;;;;;3.03;2.63;;;21.60;91.90;;;;;;6181007;28;89187;-67
2022/11/24 00:22:28;;;;;;;3.97;2.80;;;21.50;91.60;;;;;;6198346;28;90005;-67
2022/11/24 00:25:30;;;;;;;3.65;2.80;;;21.50;91.60;;;;;;6189780;28;89353;-68
2022/11/24 00:28:33;;;;;;;4.35;3.00;;;21.50;91.50;;;;;;6182929;28;88170;-67
2022/11/24 00:31:37;;;;;;;5.05;3.05;;;21.50;91.50;;;;;;6203959;28;88032;-68
2022/11/24 00:34:39;;;;;;;4.97;2.88;;;21.50;91.50;;;;;;6182631;28;89217;-67
2022/11/24 00:37:42;;;;;;;5.07;2.90;;;21.50;91.50;;;;;;6185776;28;88716;-67
2022/11/24 00:40:44;;;;;;;3.75;2.53;;;21.40;91.10;;;;;;6191814;28;89375;-67
2022/11/24 00:43:46;;;;;;;6.85;3.25;;;21.50;90.50;;;;;;6214060;28;88506;-67
2022/11/24 00:46:48;;;;;;;4.88;2.75;;;21.40;89.60;;;;;;6191987;28;88195;-68
2022/11/24 00:49:50;;;;;;;3.38;2.38;;;21.40;90.10;;;;;;6205070;28;89222;-67
2022/11/24 00:52:53;;;;;;;5.20;2.60;;;21.40;90.40;;;;;;6183467;28;90169;-67
2022/11/24 00:55:56;;;;;;;3.08;2.20;;;21.40;90.60;;;;;;6182855;28;89236;-67
2022/11/24 00:58:58;;;;;;;3.78;2.40;;;21.40;90.70;;;;;;6200729;28;89562;-67
2022/11/24 01:02:00;;;;;;;4.00;2.58;;;21.40;90.90;;;;;;6202730;28;89089;-67
2022/11/24 01:05:02;;;;;;;3.10;2.42;;;21.30;90.90;;;;;;6196352;28;89192;-68
2022/11/24 01:08:07;;;;;;;3.47;2.70;;;21.30;90.90;;;;;;6185332;28;89148;-67
2022/11/24 01:11:11;;;;;;;4.00;2.42;;;21.40;91.00;;;;;;6198154;28;89491;-68
2022/11/24 01:14:13;;;;;;;2.97;2.28;;;21.40;91.00;;;;;;6192915;28;87223;-67
2022/11/24 01:17:15;;;;;;;4.00;2.67;;;21.30;91.00;;;;;;6202260;28;89222;-67
2022/11/24 01:20:18;;;;;;;2.90;2.38;;;21.40;91.10;;;;;;6196670;28;89153;-67
2022/11/24 01:23:21;;;;;;;2.92;2.22;;;21.40;91.10;;;;;;6190450;28;88974;-67
2022/11/24 01:26:23;;;;;;;2.40;2.20;;;21.30;91.10;;;;;;6194036;28;89179;-67
2022/11/24 01:29:25;;;;;;;2.88;2.13;;;21.30;91.10;;;;;;6196142;28;89206;-67
2022/11/24 01:32:28;;;;;;;3.55;2.40;;;21.30;91.10;;;;;;6192102;28;89097;-67
2022/11/24 01:35:30;;;;;;;3.03;2.30;;;21.30;91.10;;;;;;6189209;28;89105;-66
2022/11/24 01:38:33;;;;;;;3.60;2.42;;;21.30;91.10;;;;;;6201270;28;89413;-67
2022/11/24 01:41:36;;;;;;;2.63;2.03;;;21.30;91.10;;;;;;6202949;28;89246;-67
2022/11/24 01:44:38;;;;;;;2.60;2.17;;;21.30;91.10;;;;;;6198843;28;88325;-67
2022/11/24 01:47:41;;;;;;;3.65;2.50;;;21.30;91.10;;;;;;6196078;28;89519;-67
2022/11/24 01:50:44;;;;;;;3.65;2.10;;;21.20;91.20;;;;;;6194562;28;89182;-67
2022/11/24 01:53:53;;;;;;;2.35;1.90;;;21.20;91.10;;;;;;6194168;28;90042;-67
2022/11/24 01:57:00;;;;;;;2.10;1.90;;;21.20;91.10;;;;;;6198927;28;88575;-67
2022/11/24 02:00:06;;;;;;;2.28;1.80;;;21.20;91.10;;;;;;6196625;28;89183;-66
2022/11/24 02:03:08;;;;;;;2.10;1.90;;;21.20;91.10;;;;;;6185559;28;89111;-67
2022/11/24 02:06:12;;;;;;;2.80;2.20;;;21.20;91.20;;;;;;6191200;28;89210;-67
2022/11/24 02:09:21;;;;;;;3.70;2.28;;;21.20;91.20;;;;;;6185667;28;89258;-67
2022/11/24 02:12:26;;;;;;;2.83;2.00;;;21.20;91.20;;;;;;6188218;28;89186;-68
2022/11/24 02:15:29;;;;;;;3.85;2.13;;;21.20;91.30;;;;;;6205131;28;88600;-67
2022/11/24 02:18:31;;;;;;;2.63;2.03;;;21.20;91.20;;;;;;6208384;28;88139;-66
2022/11/24 02:21:33;;;;;;;2.67;1.85;;;21.20;91.30;;;;;;6186101;28;89203;-67
2022/11/24 02:24:41;;;;;;;1.80;1.70;;;21.20;91.20;;;;;;6202080;28;90734;-67
2022/11/24 02:27:45;;;;;;;2.70;1.83;;;21.20;91.10;;;;;;6198953;28;89213;-67
2022/11/24 02:30:48;;;;;;;2.47;1.98;;;21.10;91.10;;;;;;6203073;28;89276;-66
2022/11/24 02:33:50;;;;;;;2.35;2.00;;;21.10;91.10;;;;;;6200569;28;89051;-67
2022/11/24 02:36:52;;;;;;;2.58;1.80;;;21.10;90.90;;;;;;6219063;28;89243;-66
2022/11/24 02:39:54;;;;;;;2.20;2.00;;;21.10;90.90;;;;;;6193931;28;89163;-67
2022/11/24 02:43:02;;;;;;;2.67;1.90;;;21.10;90.90;;;;;;6191652;28;89281;-67
2022/11/24 02:46:04;;;;;;;2.00;1.70;;;21.10;90.90;;;;;;6201957;28;88327;-67
2022/11/24 02:49:06;;;;;;;2.45;1.80;;;21.10;90.90;;;;;;6196044;28;89645;-67
2022/11/24 02:52:08;;;;;;;1.90;1.70;;;21.10;90.90;;;;;;6206325;28;89146;-67
2022/11/24 02:55:11;;;;;;;3.65;2.10;;;21.10;91.00;;;;;;6202186;28;90230;-67
2022/11/24 02:58:14;;;;;;;2.25;1.73;;;21.10;91.00;;;;;;6194128;28;89176;-67
2022/11/24 03:01:16;;;;;;;1.90;1.63;;;21.00;90.90;;;;;;6200773;28;89205;-67
2022/11/24 03:04:18;;;;;;;1.95;1.55;;;21.10;90.90;;;;;;6213388;28;89258;-67
2022/11/24 03:07:21;;;;;;;2.00;1.65;;;21.00;90.90;;;;;;6200605;28;89069;-67
2022/11/24 03:10:24;;;;;;;2.65;1.95;;;21.00;90.90;;;;;;6202291;28;89063;-68
2022/11/24 03:13:27;;;;;;;1.83;1.58;;;21.00;90.90;;;;;;6201347;28;89381;-67
2022/11/24 03:16:29;;;;;;;2.63;1.85;;;21.00;90.80;;;;;;6183891;28;88361;-68
2022/11/24 03:19:31;;;;;;;2.38;1.75;;;21.00;90.70;;;;;;6196463;28;89119;-68
2022/11/24 03:22:34;;;;;;;1.75;1.52;;;21.00;90.70;;;;;;6186062;28;89175;-67
2022/11/24 03:25:35;;;;;;;1.98;1.55;;;21.00;90.80;;;;;;6200153;28;90178;-67
2022/11/24 03:28:39;;;;;;;1.92;1.60;;;21.00;90.80;;;;;;6204322;28;89080;-68
2022/11/24 03:31:41;;;;;;;2.30;1.67;;;21.00;90.80;;;;;;6201248;28;89269;-68
2022/11/24 03:34:43;;;;;;;1.67;1.30;;;21.00;90.80;;;;;;6187609;28;88683;-68
2022/11/24 03:37:45;;;;;;;2.88;1.80;;;21.00;90.80;;;;;;6195229;28;88270;-67
2022/11/24 03:40:47;;;;;;;2.15;1.60;;;21.00;90.70;;;;;;6192683;28;89144;-67
2022/11/24 03:43:51;;;;;;;2.70;1.70;;;21.00;90.70;;;;;;6191431;28;89087;-67
2022/11/24 03:46:53;;;;;;;2.15;1.48;;;21.00;90.70;;;;;;6185977;28;87699;-68
2022/11/24 03:49:55;;;;;;;2.33;1.63;;;21.00;90.70;;;;;;6194490;28;89338;-67
2022/11/24 03:52:57;;;;;;;2.00;1.50;;;20.90;90.70;;;;;;6193720;28;89506;-68
2022/11/24 03:56:00;;;;;;;2.10;1.50;;;20.90;90.60;;;;;;6201370;28;90699;-68
2022/11/24 03:59:04;;;;;;;2.50;1.58;;;20.90;90.60;;;;;;6202317;28;89199;-68
2022/11/24 04:02:06;;;;;;;2.10;1.42;;;20.90;90.60;;;;;;6196376;28;89225;-68
2022/11/24 04:05:09;;;;;;;2.17;1.70;;;20.90;90.60;;;;;;6201788;28;89401;-67
2022/11/24 04:08:11;;;;;;;1.58;1.30;;;20.90;90.70;;;;;;6197868;28;89103;-67
2022/11/24 04:12:42;;;;;;;2.30;1.58;;;20.90;90.70;;;;;;6200851;28;89198;-68
2022/11/24 04:14:37;;;;;;;2.30;1.45;;;20.90;90.70;;;;;;6192879;28;87825;-67
2022/11/24 04:17:39;;;;;;;2.53;1.50;;;20.90;90.70;;;;;;6193622;28;88514;-67
2022/11/24 04:20:42;;;;;;;1.85;1.42;;;20.90;90.70;;;;;;6198751;28;89131;-67
2022/11/24 04:23:44;;;;;;;1.85;1.40;;;20.80;90.60;;;;;;6198730;28;89372;-67
2022/11/24 04:26:46;;;;;;;4.03;1.95;;;20.90;90.60;;;;;;6195201;28;90169;-67
2022/11/24 04:29:49;;;;;;;4.07;1.85;;;20.90;90.60;;;;;;6204697;28;89227;-68
2022/11/24 04:32:51;;;;;;;1.40;1.30;;;20.90;90.60;;;;;;6205007;28;89145;-67
2022/11/24 04:35:53;;;;;;;1.83;1.25;;;20.90;90.60;;;;;;6203759;28;89182;-67
2022/11/24 04:38:55;;;;;;;2.33;1.40;;;20.90;90.60;;;;;;6200996;28;89117;-67
2022/11/24 04:41:58;;;;;;;2.80;1.42;;;21.00;90.60;;;;;;6194324;28;89502;-67
2022/11/24 04:45:01;;;;;;;3.47;1.85;;;20.90;90.50;;;;;;6215399;28;89504;-67
2022/11/24 04:48:04;;;;;;;2.30;1.50;;;21.00;90.50;;;;;;6188028;28;91704;-67
2022/11/24 04:51:06;;;;;;;1.75;1.20;;;21.00;90.60;;;;;;6190825;28;88080;-67
2022/11/24 04:54:10;;;;;;;1.95;1.30;;;21.00;90.60;;;;;;6196735;28;87965;-67
2022/11/24 04:57:16;;;;;;;2.63;1.50;;;21.10;90.60;;;;;;6192976;28;92115;-67
2022/11/24 05:00:20;;;;;;;2.85;1.60;;;21.00;90.50;;;;;;6205288;28;88064;-67
2022/11/24 05:03:22;;;;;;;1.40;1.25;;;21.00;90.50;;;;;;6194211;28;89169;-67
2022/11/24 05:06:24;;;;;;;1.30;1.20;;;21.10;90.50;;;;;;6194832;28;89092;-67
2022/11/24 05:09:26;;;;;;;1.83;1.20;;;21.10;90.40;;;;;;6205324;28;89274;-67
2022/11/24 05:12:30;;;;;;;3.15;1.80;;;21.10;90.40;;;;;;6199907;28;89123;-67
2022/11/24 05:15:34;;;;;;;3.05;1.30;;;21.10;90.30;;;;;;6189644;28;89754;-67
2022/11/24 05:18:36;;;;;;;1.88;1.48;;;21.10;90.30;;;;;;6202339;28;88297;-67
2022/11/24 05:21:38;;;;;;;1.88;1.20;;;21.10;90.30;;;;;;6200649;28;89095;-67
2022/11/24 05:24:40;;;;;;;1.55;1.20;;;21.10;90.30;;;;;;6204279;28;89534;-67
2022/11/24 05:27:43;;;;;;;1.73;1.15;;;21.20;90.30;;;;;;6193704;28;89022;-68
2022/11/24 05:30:46;;;;;;;2.30;1.40;;;21.20;90.30;;;;;;6205037;28;88888;-67
2022/11/24 05:33:48;;;;;;;3.65;1.50;;;21.20;90.70;;;;;;6196426;28;89099;-68
2022/11/24 05:36:53;;;;;;;2.50;1.20;;;21.20;90.20;;;;;;6184658;28;89408;-66
2022/11/24 05:39:55;;;;;;;1.52;1.20;;;21.20;90.30;;;;;;6184758;28;89053;-67
2022/11/24 05:42:57;;;;;;;1.75;1.40;;;21.20;90.20;;;;;;6196513;28;89030;-67
2022/11/24 05:46:01;;;;;;;1.77;1.20;;;21.20;90.60;;;;;;6193570;28;89031;-67
2022/11/24 05:49:03;;;;;;;2.55;1.60;;;21.30;90.10;;;;;;6199517;28;90675;-67
2022/11/24 05:52:05;;;;;;;2.55;1.23;;;21.30;90.10;;;;;;6191894;28;89102;-68
2022/11/24 05:55:09;;;;;;;2.10;1.10;;;21.30;90.10;;;;;;6206811;28;89292;-67
2022/11/24 05:58:11;;;;;;;1.60;1.10;;;21.30;90.10;;;;;;6201789;28;89361;-67
2022/11/24 06:01:14;;;;;;;1.38;1.10;;;21.30;90.20;;;;;;6196474;28;89238;-66
2022/11/24 06:04:16;;;;;;;2.10;1.10;;;21.30;90.30;;;;;;6207537;28;89299;-69
2022/11/24 06:07:18;;;;;;;114.95;83.45;;;21.40;90.40;;;;;;6206264;28;89142;-69
2022/11/24 06:10:22;;;;;;;272.20;196.20;;;21.40;92.40;;;;;;6203005;28;89104;-68
2022/11/24 06:13:25;;;;;;;65.10;45.63;;;21.40;94.40;;;;;;6199927;28;89219;-68
2022/11/24 06:16:28;;;;;;;49.85;35.00;;;21.60;93.50;;;;;;6194428;28;90937;-67
2022/11/24 06:19:30;;;;;;;40.83;28.60;;;21.60;92.30;;;;;;6200415;28;87830;-68
2022/11/24 06:22:32;;;;;;;36.97;25.88;;;21.60;91.90;;;;;;6186722;28;89204;-68
2022/11/24 06:25:34;;;;;;;33.20;23.73;;;21.60;91.70;;;;;;6190289;28;89270;-68
2022/11/24 06:28:37;;;;;;;31.20;20.65;;;21.60;91.60;;;;;;6194263;28;90118;-68
2022/11/24 06:31:40;;;;;;;28.02;18.85;;;21.60;91.60;;;;;;6193384;28;89140;-68
2022/11/24 06:34:42;;;;;;;26.02;17.88;;;21.60;92.00;;;;;;6195570;28;89133;-69
2022/11/24 06:37:45;;;;;;;22.63;16.10;;;21.60;91.60;;;;;;6192501;28;88212;-69
2022/11/24 06:40:47;;;;;;;25.33;16.35;;;21.70;91.60;;;;;;6195071;28;89297;-69
2022/11/24 06:43:49;;;;;;;23.83;15.52;;;21.70;91.40;;;;;;6195282;28;89255;-70
2022/11/24 06:46:52;;;;;;;21.73;14.40;;;21.70;91.30;;;;;;6189131;28;89223;-70
2022/11/24 06:49:54;;;;;;;19.63;13.10;;;21.70;91.20;;;;;;6198824;28;87248;-69
2022/11/24 06:52:56;;;;;;;18.33;13.20;;;21.70;91.20;;;;;;6212382;28;89510;-69
2022/11/24 06:56:00;;;;;;;19.55;12.13;;;21.70;91.10;;;;;;6201152;28;89100;-69
2022/11/24 06:59:02;;;;;;;19.73;12.50;;;21.60;91.10;;;;;;6201079;28;89946;-69
2022/11/24 07:02:06;;;;;;;16.55;11.05;;;21.70;91.20;;;;;;6191028;28;89011;-69
2022/11/24 07:05:08;;;;;;;18.30;11.02;;;21.80;91.20;;;;;;6202623;28;89646;-69
2022/11/24 07:08:10;;;;;;;17.10;10.73;;;21.70;91.20;;;;;;6205630;28;89219;-69
2022/11/24 07:11:15;;;;;;;18.67;10.25;;;21.80;91.20;;;;;;6206165;28;89594;-70
2022/11/24 07:14:18;;;;;;;16.13;9.63;;;21.80;91.20;;;;;;6192555;28;89047;-68
2022/11/24 07:17:21;;;;;;;20.33;9.50;;;21.80;91.20;;;;;;6182967;28;88287;-69
2022/11/24 07:20:23;;;;;;;15.75;9.15;;;21.80;91.30;;;;;;6184569;28;88293;-69
2022/11/24 07:23:25;;;;;;;19.40;8.90;;;21.80;91.30;;;;;;6202866;28;89346;-69
2022/11/24 07:26:27;;;;;;;16.30;8.82;;;21.80;91.30;;;;;;6212418;28;89391;-70
2022/11/24 07:29:29;;;;;;;16.42;8.18;;;21.80;91.30;;;;;;6203695;28;89095;-69
2022/11/24 07:32:33;;;;;;;16.42;8.82;;;21.80;91.40;;;;;;6200111;28;88149;-68
2022/11/24 07:35:36;;;;;;;22.15;9.90;;;21.80;91.50;;;;;;6194447;28;89102;-69
2022/11/24 07:38:38;;;;;;;20.85;8.93;;;21.80;92.10;;;;;;6181806;28;88986;-67
2022/11/24 07:41:39;;;;;;;17.63;8.18;;;21.80;91.90;;;;;;6194276;28;89418;-69
2022/11/24 07:44:42;;;;;;;15.40;7.20;;;21.80;91.90;;;;;;6186190;28;89328;-68
2022/11/24 07:47:45;;;;;;;14.15;7.53;;;21.80;92.00;;;;;;6203951;28;89083;-69
2022/11/24 07:50:47;;;;;;;12.82;6.40;;;21.80;91.80;;;;;;6198168;28;88459;-69
2022/11/24 07:53:49;;;;;;;14.35;6.07;;;21.80;92.00;;;;;;6195394;28;88957;-69
2022/11/24 07:56:51;;;;;;;13.48;6.50;;;21.80;91.80;;;;;;6205151;28;89237;-70
2022/11/24 07:59:53;;;;;;;12.35;6.18;;;21.80;91.70;;;;;;6194177;28;90434;-69
2022/11/24 08:02:57;;;;;;;11.90;6.03;;;21.90;91.70;;;;;;6182626;28;89155;-69
2022/11/24 08:06:00;;;;;;;13.25;6.30;;;21.90;91.60;;;;;;6191108;28;89005;-69
2022/11/24 08:09:02;;;;;;;11.75;5.70;;;21.90;91.60;;;;;;6187201;28;88101;-69
2022/11/24 08:12:04;;;;;;;11.82;5.30;;;21.90;91.60;;;;;;6184643;28;89180;-69
2022/11/24 08:15:08;;;;;;;11.73;5.43;;;22.00;99.30;;;;;;6192178;28;88045;-69
2022/11/24 08:18:12;;;;;;;10.27;5.10;;;22.10;97.40;;;;;;6191861;28;89088;-69
2022/11/24 08:21:14;;;;;;;10.32;4.85;;;22.10;95.80;;;;;;6192731;28;88343;-69
2022/11/24 08:24:16;;;;;;;8.88;4.43;;;22.20;95.00;;;;;;6188658;28;89254;-69
2022/11/24 08:27:19;;;;;;;9.93;4.80;;;22.20;94.30;;;;;;6199772;28;90244;-69
2022/11/24 08:30:21;;;;;;;7.78;4.25;;;22.20;94.00;;;;;;6190998;28;90273;-68
2022/11/24 08:33:25;;;;;;;11.52;4.57;;;22.20;93.60;;;;;;6211793;28;89184;-70
2022/11/24 08:36:27;;;;;;;8.30;4.10;;;22.20;93.30;;;;;;6193962;28;89160;-69
2022/11/24 08:39:29;;;;;;;7.85;4.20;;;22.20;92.40;;;;;;6193762;28;89613;-69
2022/11/24 08:42:31;;;;;;;6.65;3.85;;;22.20;92.30;;;;;;6191865;28;89284;-69
2022/11/24 08:45:33;;;;;;;8.68;4.25;;;22.20;92.10;;;;;;6207312;28;89125;-69
2022/11/24 08:48:37;;;;;;;8.40;3.83;;;22.20;92.00;;;;;;6206851;28;89227;-69
2022/11/24 08:51:39;;;;;;;8.95;3.90;;;22.20;91.90;;;;;;6208023;28;88399;-69
2022/11/24 08:54:43;;;;;;;7.95;3.63;;;22.20;91.80;;;;;;6201265;28;89408;-69
2022/11/24 08:57:45;;;;;;;8.95;4.20;;;22.20;91.80;;;;;;6197456;28;89308;-69
2022/11/24 09:00:47;;;;;;;6.95;3.80;;;22.30;91.70;;;;;;6204525;28;90077;-69
2022/11/24 09:03:51;;;;;;;8.63;4.18;;;22.20;91.60;;;;;;6207665;28;89223;-70
2022/11/24 09:06:53;;;;;;;7.60;3.63;;;22.30;91.60;;;;;;6209005;28;89106;-69
2022/11/24 09:09:55;;;;;;;7.57;3.05;;;22.20;91.50;;;;;;6201370;28;89192;-70
2022/11/24 09:12:57;;;;;;;5.53;3.08;;;22.20;91.50;;;;;;6209781;28;89111;-70
2022/11/24 09:16:03;;;;;;;7.47;2.90;;;22.30;91.50;;;;;;6198870;28;89283;-70
2022/11/24 09:19:07;;;;;;;6.80;3.00;;;22.30;91.50;;;;;;6198338;28;89479;-70
2022/11/24 09:22:09;;;;;;;5.65;2.67;;;22.20;91.40;;;;;;6214219;28;88355;-69
2022/11/24 09:25:12;;;;;;;6.10;2.85;;;22.20;91.40;;;;;;6211851;28;89277;-69
2022/11/24 09:28:14;;;;;;;5.57;2.80;;;22.30;91.40;;;;;;6191564;28;88988;-68
2022/11/24 09:31:17;;;;;;;5.88;3.08;;;22.20;91.40;;;;;;6208972;28;90537;-69
2022/11/24 09:34:21;;;;;;;5.13;2.75;;;22.20;91.40;;;;;;6207845;28;87973;-70
2022/11/24 09:37:23;;;;;;;5.53;2.67;;;22.20;91.40;;;;;;6208335;28;87959;-68
2022/11/24 09:40:25;;;;;;;5.53;2.67;;;22.20;91.40;;;;;;6207982;28;88112;-69
2022/11/24 09:43:37;;;;;;;5.03;2.65;;;22.20;91.30;;;;;;6192772;28;89100;-69
2022/11/24 09:46:49;;;;;;;5.60;2.53;;;22.20;91.30;;;;;;6204818;28;89522;-68
2022/11/24 09:49:58;;;;;;;5.65;2.50;;;22.10;91.40;;;;;;6201459;28;89048;-69
2022/11/24 09:53:08;;;;;;;5.15;2.60;;;22.20;91.40;;;;;;6193770;28;88975;-69
2022/11/24 09:56:16;;;;;;;5.82;2.70;;;22.20;91.40;;;;;;6198248;28;88614;-70
2022/11/24 09:59:20;;;;;;;5.40;2.40;;;22.20;91.40;;;;;;6201808;28;88836;-69
2022/11/24 10:02:22;;;;;;;4.22;2.30;;;22.10;91.40;;;;;;6201737;28;89024;-69
2022/11/24 10:05:28;;;;;;;3.92;2.15;;;22.10;91.40;;;;;;6208192;28;89276;-69
2022/11/24 10:08:47;;;;;;;5.05;2.55;;;22.10;91.30;;;;;;6193474;28;89197;-69
2022/11/24 10:11:58;;;;;;;5.10;2.50;;;22.10;91.40;;;;;;6196315;28;89158;-69
2022/11/24 10:15:32;;;;;;;3.42;2.13;;;22.10;91.40;;;;;;6196163;28;89080;-69
2022/11/24 10:19:01;;;;;;;3.88;2.25;;;22.10;91.40;;;;;;6196466;28;89235;-69
2022/11/24 10:22:18;;;;;;;5.15;2.65;;;22.10;91.40;;;;;;6191747;28;89435;-70
2022/11/24 10:25:24;;;;;;;5.20;2.75;;;22.10;91.40;;;;;;6207446;28;87407;-69
2022/11/24 10:28:33;;;;;;;3.67;1.88;;;22.10;91.40;;;;;;6195031;28;89953;-69
2022/11/24 10:31:37;;;;;;;3.70;2.20;;;22.10;91.50;;;;;;6208404;28;89315;-69
2022/11/24 10:34:43;;;;;;;3.30;1.70;;;22.10;91.50;;;;;;6206667;28;90023;-69
2022/11/24 10:37:57;;;;;;;4.10;1.80;;;22.10;91.50;;;;;;6185418;28;89039;-68
2022/11/24 10:41:03;;;;;;;4.47;2.10;;;22.10;91.50;;;;;;6194845;28;89234;-69
2022/11/24 10:44:10;;;;;;;3.83;2.10;;;22.10;91.50;;;;;;6185804;28;89133;-69
2022/11/24 10:47:19;;;;;;;3.38;1.83;;;22.10;91.50;;;;;;6189257;28;89298;-69
2022/11/24 10:50:23;;;;;;;4.68;1.75;;;22.10;91.20;;;;;;6206370;28;89089;-69
2022/11/24 10:53:29;;;;;;;4.68;2.08;;;22.10;90.70;;;;;;6202254;28;89182;-69
2022/11/24 10:56:39;;;;;;;4.78;1.80;;;22.10;90.90;;;;;;6186080;28;88508;-69
2022/11/24 10:59:42;;;;;;;5.57;1.92;;;22.10;91.00;;;;;;6197175;28;89051;-69
2022/11/24 11:02:44;;;;;;;5.18;2.22;;;22.10;91.00;;;;;;6193417;28;89098;-69
2022/11/24 11:05:51;;;;;;;3.50;1.80;;;22.10;91.00;;;;;;6206435;28;89023;-69
2022/11/24 11:09:18;;;;;;;3.28;1.80;;;22.10;91.00;;;;;;6195348;28;89197;-69
2022/11/24 11:12:22;;;;;;;4.05;1.98;;;22.10;91.10;;;;;;6192434;28;89062;-69
2022/11/24 11:15:26;;;;;;;5.40;1.95;;;22.10;91.10;;;;;;6200643;28;88143;-69
2022/11/24 11:18:33;;;;;;;3.65;2.00;;;22.10;91.10;;;;;;6203394;28;89292;-69
2022/11/24 11:21:37;;;;;;;4.00;1.73;;;22.10;91.10;;;;;;6213348;28;89447;-69
2022/11/24 11:24:43;;;;;;;4.07;1.75;;;22.10;91.20;;;;;;6198515;28;89047;-69
2022/11/24 11:27:45;;;;;;;2.97;1.80;;;22.10;91.20;;;;;;6201751;28;88382;-69
2022/11/24 11:30:58;;;;;;;2.83;2.00;;;22.10;91.20;;;;;;6206398;28;89211;-69
2022/11/24 11:34:03;;;;;;;2.90;1.65;;;22.10;91.20;;;;;;6202978;28;87984;-69
2022/11/24 11:37:06;;;;;;;3.97;1.70;;;22.10;91.20;;;;;;6186484;28;90171;-69
2022/11/24 11:40:16;;;;;;;3.20;1.55;;;22.10;91.20;;;;;;6188517;28;89226;-69
2022/11/24 11:43:25;;;;;;;4.03;1.95;;;22.10;91.20;;;;;;6205323;28;89137;-69
2022/11/24 11:46:31;;;;;;;3.38;1.65;;;22.10;91.80;;;;;;6181483;28;89172;-69
2022/11/24 11:49:33;;;;;;;3.15;1.63;;;22.10;94.80;;;;;;6194125;28;88743;-69
2022/11/24 11:53:00;;;;;;;4.15;1.70;;;22.20;93.50;;;;;;6205490;28;89087;-69
2022/11/24 11:56:22;;;;;;;3.55;1.80;;;22.20;92.60;;;;;;6192480;28;89428;-67
2022/11/24 11:59:35;;;;;;;3.13;1.73;;;22.20;92.50;;;;;;6188464;28;88537;-68
2022/11/24 12:10:40;;;;;;;2.75;1.33;;;22.30;92.10;;;;;;6182270;28;88108;-68
2022/11/24 12:13:52;;;;;;;3.78;1.80;;;22.20;92.00;;;;;;6190354;28;93262;-68
2022/11/24 12:17:04;;;;;;;7.35;2.15;;;22.20;92.00;;;;;;6182951;28;89215;-67
2022/11/24 12:20:25;;;;;;;6.75;2.00;;;22.20;92.20;;;;;;6205691;28;89417;-68
2022/11/24 12:23:36;;;;;;;4.32;2.10;;;22.20;92.40;;;;;;6197699;28;88026;-68
2022/11/24 12:26:43;;;;;;;6.55;1.98;;;22.20;92.60;;;;;;6188379;28;89293;-68
2022/11/24 12:30:05;;;;;;;6.75;1.85;;;22.20;92.60;;;;;;6202441;28;89257;-67
2022/11/24 12:33:30;;;;;;;5.78;1.60;;;22.20;92.50;;;;;;6205064;28;88301;-68
2022/11/24 12:36:51;;;;;;;3.85;1.90;;;22.20;92.50;;;;;;6206999;28;88218;-67
2022/11/24 12:40:01;;;;;;;6.35;2.10;;;22.20;92.50;;;;;;6193301;28;89215;-68
2022/11/24 12:43:13;;;;;;;3.75;1.75;;;22.20;92.50;;;;;;6201958;28;90693;-68
2022/11/24 12:46:23;;;;;;;4.95;1.88;;;22.20;92.50;;;;;;6205399;28;89504;-68
2022/11/24 12:49:33;;;;;;;4.40;1.90;;;22.20;92.50;;;;;;6204717;28;89776;-68
2022/11/24 12:52:40;;;;;;;3.97;1.70;;;22.20;92.50;;;;;;6192344;28;89149;-67
2022/11/24 12:55:44;;;;;;;7.32;1.65;;;22.20;92.90;;;;;;6199032;28;89215;-67
2022/11/24 12:58:52;;;;;;;6.03;1.90;;;22.20;92.50;;;;;;6202861;28;89168;-67
2022/11/24 13:02:03;;;;;;;6.95;2.05;;;22.20;92.40;;;;;;6203353;28;89214;-68
2022/11/24 13:05:18;;;;;;;4.25;1.73;;;22.20;92.50;;;;;;6197235;28;88492;-68
2022/11/24 13:08:22;;;;;;;4.22;1.90;;;22.20;92.40;;;;;;6188349;28;88289;-67
2022/11/24 13:11:39;;;;;;;3.65;1.90;;;22.20;92.40;;;;;;6196704;28;89041;-67
2022/11/24 13:14:44;;;;;;;4.00;1.83;;;22.20;92.40;;;;;;6204044;28;90264;-68
2022/11/24 13:17:47;;;;;;;5.38;2.08;;;22.20;92.40;;;;;;6192473;28;89290;-68
2022/11/24 13:20:49;;;;;;;3.65;1.73;;;22.20;92.40;;;;;;6195084;28;88309;-68
2022/11/24 13:23:57;;;;;;;5.45;2.00;;;22.20;92.40;;;;;;6209920;28;89204;-67
2022/11/24 13:27:26;;;;;;;2.88;1.70;;;22.20;92.30;;;;;;6195854;28;88436;-68
2022/11/24 13:30:58;;;;;;;3.55;1.67;;;22.20;92.30;;;;;;6208515;28;89077;-68
2022/11/24 13:34:39;;;;;;;4.30;2.10;;;22.20;92.30;;;;;;6207921;28;89337;-68
2022/11/24 13:37:51;;;;;;;3.75;1.67;;;22.20;92.30;;;;;;6197212;28;88678;-67
2022/11/24 13:40:53;;;;;;;2.85;1.55;;;22.20;92.30;;;;;;6199030;28;89220;-68
2022/11/24 13:44:31;;;;;;;4.32;1.75;;;22.20;92.40;;;;;;6192268;28;89202;-67
2022/11/24 13:47:41;;;;;;;3.10;1.80;;;22.20;92.50;;;;;;6192745;28;89621;-68
2022/11/24 13:51:23;;;;;;;3.08;1.70;;;22.20;92.60;;;;;;6191537;28;88072;-68
2022/11/24 13:54:27;;;;;;;3.22;1.60;;;22.20;92.60;;;;;;6187478;28;89267;-67
2022/11/24 13:57:33;;;;;;;3.88;1.90;;;22.20;92.60;;;;;;6204790;28;89101;-68
2022/11/24 14:00:56;;;;;;;2.83;1.52;;;22.10;92.60;;;;;;6206406;28;89339;-67
2022/11/24 14:04:18;;;;;;;3.55;1.85;;;22.10;92.70;;;;;;6202272;28;89118;-68
2022/11/24 14:07:21;;;;;;;3.20;1.75;;;22.20;92.80;;;;;;6197556;28;89120;-68
2022/11/24 14:10:30;;;;;;;3.05;1.88;;;22.20;92.80;;;;;;6189070;28;88622;-68
2022/11/24 14:13:33;;;;;;;4.03;1.83;;;22.10;92.80;;;;;;6202398;28;89255;-68
2022/11/24 14:16:35;;;;;;;3.67;1.67;;;22.10;92.80;;;;;;6186261;28;89083;-68
2022/11/24 14:19:37;;;;;;;4.10;1.70;;;22.20;92.90;;;;;;6206144;28;89419;-68
2022/11/24 14:22:42;;;;;;;3.15;1.70;;;22.10;92.90;;;;;;6207412;28;89411;-68
2022/11/24 14:25:49;;;;;;;2.72;1.65;;;22.10;92.90;;;;;;6217108;28;89316;-68
2022/11/24 14:28:52;;;;;;;3.90;1.98;;;22.10;92.90;;;;;;6204799;28;88212;-68
2022/11/24 14:31:55;;;;;;;2.22;1.52;;;22.10;93.00;;;;;;6196442;28;89020;-67
2022/11/24 14:34:58;;;;;;;2.75;1.80;;;22.10;93.00;;;;;;6198112;28;89238;-68
2022/11/24 14:38:02;;;;;;;3.08;1.70;;;22.10;93.00;;;;;;6199548;28;88090;-67
2022/11/24 14:41:21;;;;;;;1.95;1.42;;;22.10;93.00;;;;;;6204552;28;88461;-67
2022/11/24 14:44:26;;;;;;;3.70;1.60;;;22.20;93.00;;;;;;6200109;28;89076;-67
2022/11/24 14:47:30;;;;;;;3.47;1.55;;;22.10;93.20;;;;;;6201492;28;89091;-67
2022/11/24 14:50:32;;;;;;;3.53;1.60;;;22.20;93.10;;;;;;6207140;28;90435;-68
2022/11/24 14:53:36;;;;;;;3.50;1.50;;;22.20;93.10;;;;;;6194868;28;89061;-68
2022/11/24 14:56:39;;;;;;;4.30;1.75;;;22.20;93.10;;;;;;6194638;28;89334;-67
2022/11/24 14:59:41;;;;;;;5.03;1.65;;;22.20;93.20;;;;;;6194648;28;89173;-68
2022/11/24 15:02:47;;;;;;;3.97;1.70;;;22.20;93.20;;;;;;6206290;28;88085;-67
2022/11/24 15:05:55;;;;;;;4.22;1.70;;;22.20;93.20;;;;;;6196181;28;89141;-68
2022/11/24 15:08:58;;;;;;;3.65;1.60;;;22.20;93.20;;;;;;6205978;28;89101;-68
2022/11/24 15:12:06;;;;;;;4.25;1.90;;;22.20;93.20;;;;;;6184657;28;88353;-68
2022/11/24 15:15:20;;;;;;;3.97;1.70;;;22.20;93.20;;;;;;6204638;28;89283;-67
2022/11/24 15:18:26;;;;;;;5.50;2.03;;;22.20;93.10;;;;;;6194412;28;89256;-68
2022/11/24 15:21:33;;;;;;;4.82;1.70;;;22.20;93.10;;;;;;6207187;28;90311;-68
2022/11/24 15:24:49;;;;;;;6.00;1.75;;;22.20;93.10;;;;;;6194373;28;89267;-67
2022/11/24 15:27:51;;;;;;;3.95;1.60;;;22.20;93.00;;;;;;6206387;28;89215;-68
2022/11/24 15:30:54;;;;;;;6.25;2.00;;;22.20;93.00;;;;;;6189562;28;88764;-68
2022/11/24 15:33:56;;;;;;;3.28;1.70;;;22.20;93.00;;;;;;6191545;28;89246;-68
2022/11/24 15:36:58;;;;;;;2.97;1.65;;;22.20;92.90;;;;;;6206169;28;89090;-67
2022/11/24 15:40:01;;;;;;;3.00;1.55;;;22.20;92.90;;;;;;6205780;28;89137;-68
2022/11/24 15:43:27;;;;;;;2.90;1.40;;;22.20;92.80;;;;;;6195778;28;88376;-68
2022/11/24 15:46:36;;;;;;;2.95;1.52;;;22.20;92.80;;;;;;6195827;28;89111;-68
2022/11/24 15:49:38;;;;;;;3.47;1.65;;;22.20;92.80;;;;;;6185642;28;89351;-68
2022/11/24 15:52:40;;;;;;;3.25;1.60;;;22.20;93.10;;;;;;6190905;28;90138;-68
2022/11/24 15:55:44;;;;;;;2.22;1.40;;;22.20;92.70;;;;;;6182294;28;89097;-68
2022/11/24 15:58:46;;;;;;;1.92;1.50;;;22.20;92.60;;;;;;6200560;28;91012;-68
2022/11/24 16:01:49;;;;;;;3.17;1.58;;;22.20;92.60;;;;;;6205061;28;89421;-67
2022/11/24 16:04:51;;;;;;;3.22;1.70;;;22.20;92.60;;;;;;6205483;28;89155;-68
2022/11/24 16:07:53;;;;;;;2.85;1.60;;;22.20;92.60;;;;;;6192499;28;89192;-68
2022/11/24 16:10:56;;;;;;;4.43;1.92;;;22.20;92.50;;;;;;6191155;28;89029;-68